Terminal Aerodrome Forecast
Issued by NWS

Current Version | Previous Version | Text Only | Print | Product List | Glossary Off
Versions: 1 2 3 4 5 6 7 8 9 10 11 12 13 14 15 16 17 18 19 20 21 22 23 24 25

000
FTUS41 KRLX 180700 AAA
TAFCKB
TAF AMD
KCKB 180759Z 1808/1906 00000KT 2SM BR SCT001 BKN040
      TEMPO 1808/1812 1SM BR
     FM181200 00000KT 5SM BR SCT001 BKN035
     FM181400 11004KT P6SM BKN035
     FM181600 12004KT P6SM VCTS OVC035CB
     FM182200 VRB03KT 6SM BR VCTS BKN040CB
     FM190500 00000KT P6SM BKN040=

USA.gov is the U.S. government's official web portal to all federal, state and local government web resources and services.